Saturday, November 18, 2017, 11:46 PM EST
Back to Local

KBVY, Beverly Municipal Airport

Location: Danvers, MA, United States Lat: 42.583
Local Time: 11:46 PM EST ( 4:46 GMT) Lon: -70.917
Time Zone: US/Eastern Elev: 108 ft

Show me the last for .
Show Decoded

2017-11-18 22:53 METAR KBVY 190353Z AUTO 15006KT 8SM -RA BKN023 OVC029 11/09 A2950 RMK AO2 RAB08
                 SLP986 P0001 T01060089 =
2017-11-18 22:45 METAR KBVY 190345Z AUTO 16005KT 10SM -RA BKN023 OVC029 10/09 A2950 RMK AO2 RAB08
                 P0000 T01000089 =
2017-11-18 21:53 METAR KBVY 190253Z AUTO 15006KT 10SM OVC037 10/09 A2954 RMK AO2 RAE36 SLP999
                 P0003 60009 T01000089 58040 =
2017-11-18 20:53 METAR KBVY 190153Z AUTO 15008KT 5SM -RA BR FEW027 BKN037 OVC047 10/09 A2959 RMK
                 AO2 RAB0056 SLP016 P0006 T01000089 =
2017-11-18 19:53 METAR KBVY 190053Z 14007KT 10SM SCT043 OVC060 09/07 A2962 RMK AO2 SLP026 LAST
                 T00940072 =
2017-11-18 18:53 METAR KBVY 182353Z 14006KT 10SM OVC065 09/07 A2966 RMK AO2 SLP041 60000
                 T00890067 10089 20061 58022 =
2017-11-18 17:53 METAR KBVY 182253Z 12005KT 10SM FEW032 SCT075 OVC090 07/04 A2969 RMK AO2 RAE14
                 SLP050 P0000 T00720039 =
2017-11-18 16:53 METAR KBVY 182153Z 12004KT 10SM -RA BKN070 OVC090 07/02 A2971 RMK AO2 RAB42
                 SLP059 P0000 T00670017 =
2017-11-18 15:53 METAR KBVY 182053Z 15006KT 10SM OVC120 07/M01 A2972 RMK AO2 SLP063 T00721011
                 58029 =
2017-11-18 14:53 METAR KBVY 181953Z 18008KT 10SM BKN100 08/M03 A2975 RMK AO2 SLP072 T00781033 =
2017-11-18 13:53 METAR KBVY 181853Z 18005KT 10SM BKN100 07/M08 A2979 RMK AO2 SLP084 T00721078 =
2017-11-18 12:53 METAR KBVY 181753Z 19004KT 10SM BKN120 BKN200 07/M09 A2981 RMK AO2 SLP091
                 T00721094 10072 21044 58041 =
2017-11-18 11:53 METAR KBVY 181653Z 16009KT 10SM CLR 06/M09 A2985 RMK AO2 SLP107 T00611089 =
2017-11-18 10:53 METAR KBVY 181553Z 19007KT 10SM CLR 06/M10 A2990 RMK AO2 SLP122 T00611100 =
2017-11-18 09:53 METAR KBVY 181453Z VRB04KT 10SM SCT250 04/M08 A2993 RMK AO2 SLP132 T00441083
                 58011 =
2017-11-18 08:53 METAR KBVY 181353Z 26003KT 10SM SCT250 02/M09 A2994 RMK AO2 SLP135 T00171089 =
2017-11-18 07:53 METAR KBVY 181253Z 25005KT 10SM SCT250 M01/M08 A2996 RMK AO2 SLP144 T10061078 =
2017-11-18 06:53 METAR KBVY 181153Z 24004KT 10SM FEW120 SCT250 M04/M08 A2996 RMK AO2 SLP143
                 T10391083 10000 21044 50001 =
2017-11-18 05:53 METAR KBVY 181053Z AUTO 00000KT 10SM CLR M04/M09 A2997 RMK AO2 SLP147 T10391089
                 =
2017-11-18 04:53 METAR KBVY 180953Z AUTO 27004KT 10SM CLR M03/M09 A2997 RMK AO2 SLP147 T10281094
                 =
2017-11-18 03:53 METAR KBVY 180853Z AUTO 27004KT 10SM CLR M03/M09 A2996 RMK AO2 SLP142 T10281094
                 58006 =
2017-11-18 02:53 METAR KBVY 180753Z AUTO 00000KT 10SM CLR M02/M10 A2998 RMK AO2 SLP148 T10221100
                 =
2017-11-18 01:53 METAR KBVY 180653Z AUTO 30008KT 10SM CLR M01/M10 A2997 RMK AO2 SLP147 T10111100
                 =
2017-11-18 00:53 METAR KBVY 180553Z AUTO 31009KT 10SM CLR 00/M11 A2998 RMK AO2 SLP148 T00001111
                 10022 21011 53002 =
2017-11-17 23:53 METAR KBVY 180453Z AUTO 32009KT 10SM CLR M01/M10 A2996 RMK AO2 SLP144 T10111100
                 400561011 =

Support USWX by starting your Amazon purchase here.